SWR1LE LSZH-CYUL
Flight info
| Callsign | SWR1LE |
|---|---|
| Flight time | N/A |
| Altitude | 34000 |
| Route | VEBIT T10 TORPA DCT REKLA DCT RLP DCT ROTSI/N0459F360 DCT AMODO/N0463F380 DCT COHPA UM729 RESMI DCT TABOV DCT PIGOP DCT DITAL UN491 LGL UN502 ARGED DCT SENLO DCT JSY DCT LIZAD DCT LESLU DCT LODLA DCT MALOT/M080F390 NATD RIKAL/N0471F400 DCT YAY DCT TAFFY DCT ATENE DCT KEBIG ROCKT3 |
| Aircraft | A343/H-SDE2E3FGHIJ4J5M1P2RWXY/LB1D1 |
Departure
| Time | 2026-05-04 11:05 |
|---|---|
| Airport | Zürich Airport (LSZH) |
Arrival
| Time | N/A |
|---|---|
| Airport | Montreal / Pierre Elliott Trudeau International Airport (CYUL) |
| Time | Latitude | Longitude | Altitude | Speed | Heading |
|---|---|---|---|---|---|
| 2026-05-04 10:33 | 47.46169 | 8.55492 | 1409 ft | 0 kts | 186° |
| 2026-05-04 10:49 | 47.46237 | 8.55509 | 1401 ft | 4 kts | 219° |
| 2026-05-04 10:49 | 47.46251 | 8.55538 | 1411 ft | 4 kts | 262° |
| 2026-05-04 10:50 | 47.46252 | 8.55565 | 1410 ft | 1 kts | 276° |
| 2026-05-04 10:51 | 47.46251 | 8.55569 | 1410 ft | 0 kts | 276° |
| 2026-05-04 10:56 | 47.46309 | 8.54904 | 1405 ft | 14 kts | 304° |
| 2026-05-04 10:56 | 47.46407 | 8.54820 | 1411 ft | 19 kts | 335° |
| 2026-05-04 10:56 | 47.46538 | 8.54729 | 1411 ft | 21 kts | 335° |
| 2026-05-04 10:57 | 47.46666 | 8.54641 | 1407 ft | 20 kts | 335° |
| 2026-05-04 10:57 | 47.46690 | 8.54625 | 1408 ft | 0 kts | 335° |
| 2026-05-04 10:57 | 47.46710 | 8.54608 | 1404 ft | 13 kts | 327° |
| 2026-05-04 10:57 | 47.46741 | 8.54493 | 1411 ft | 2 kts | 237° |
| 2026-05-04 10:58 | 47.46682 | 8.54499 | 1403 ft | 17 kts | 166° |
| 2026-05-04 10:58 | 47.46520 | 8.54595 | 1408 ft | 30 kts | 154° |
| 2026-05-04 10:58 | 47.46346 | 8.54719 | 1408 ft | 26 kts | 155° |
| 2026-05-04 10:58 | 47.46182 | 8.54828 | 1409 ft | 26 kts | 155° |
| 2026-05-04 10:59 | 47.46024 | 8.54938 | 1411 ft | 24 kts | 154° |
| 2026-05-04 10:59 | 47.45906 | 8.55108 | 1409 ft | 26 kts | 108° |
| 2026-05-04 10:59 | 47.45886 | 8.55358 | 1406 ft | 24 kts | 95° |
| 2026-05-04 10:59 | 47.45872 | 8.55591 | 1407 ft | 22 kts | 95° |
| 2026-05-04 11:00 | 47.45855 | 8.55803 | 1402 ft | 20 kts | 97° |
| 2026-05-04 11:01 | 47.45671 | 8.56706 | 1413 ft | 51 kts | 270° |
| 2026-05-04 11:02 | 47.45730 | 8.55927 | 1412 ft | 106 kts | 279° |
| 2026-05-04 11:02 | 47.45836 | 8.54562 | 1415 ft | 159 kts | 280° |
| 2026-05-04 11:05 | 47.35541 | 8.24984 | 10404 ft | 274 kts | 241° |
| 2026-05-04 11:06 | 47.34635 | 8.22425 | 10674 ft | 289 kts | 241° |
| 2026-05-04 11:06 | 47.33673 | 8.19722 | 10949 ft | 305 kts | 241° |
| 2026-05-04 11:06 | 47.32662 | 8.16879 | 11223 ft | 320 kts | 241° |
| 2026-05-04 11:06 | 47.31606 | 8.13920 | 11589 ft | 331 kts | 242° |
| 2026-05-04 11:08 | 47.27655 | 7.90565 | 15487 ft | 364 kts | 275° |
| 2026-05-04 11:10 | 47.30453 | 7.63809 | 18997 ft | 393 kts | 280° |
| 2026-05-04 11:12 | 47.36232 | 7.36296 | 22351 ft | 409 kts | 284° |
| 2026-05-04 11:12 | 47.37099 | 7.32296 | 22803 ft | 411 kts | 284° |
| 2026-05-04 11:12 | 47.37970 | 7.28257 | 23223 ft | 414 kts | 284° |
| 2026-05-04 11:12 | 47.38845 | 7.24183 | 23621 ft | 417 kts | 284° |
| 2026-05-04 11:13 | 47.39723 | 7.20088 | 23947 ft | 419 kts | 284° |
| 2026-05-04 11:13 | 47.40558 | 7.15969 | 24304 ft | 419 kts | 280° |
| 2026-05-04 11:13 | 47.41247 | 7.11783 | 24659 ft | 421 kts | 279° |
| 2026-05-04 11:13 | 47.41900 | 7.07561 | 25022 ft | 422 kts | 278° |
| 2026-05-04 11:14 | 47.42524 | 7.03368 | 25374 ft | 424 kts | 278° |
| 2026-05-04 11:14 | 47.43144 | 6.99113 | 25685 ft | 426 kts | 278° |
| 2026-05-04 11:14 | 47.43766 | 6.94822 | 26011 ft | 428 kts | 278° |
| 2026-05-04 11:16 | 47.48014 | 6.64297 | 28076 ft | 438 kts | 272° |
| 2026-05-04 11:16 | 47.48389 | 6.59811 | 28317 ft | 439 kts | 271° |
| 2026-05-04 11:16 | 47.48731 | 6.55308 | 28606 ft | 440 kts | 271° |
| 2026-05-04 11:17 | 47.49056 | 6.50812 | 28866 ft | 442 kts | 271° |
| 2026-05-04 11:17 | 47.49374 | 6.46277 | 29123 ft | 444 kts | 270° |
| 2026-05-04 11:19 | 47.51603 | 6.14159 | 30786 ft | 453 kts | 270° |
| 2026-05-04 11:19 | 47.51925 | 6.09450 | 30995 ft | 454 kts | 270° |
| 2026-05-04 11:19 | 47.52237 | 6.04857 | 31266 ft | 454 kts | 270° |
| 2026-05-04 11:19 | 47.52551 | 6.00217 | 31568 ft | 452 kts | 270° |
| 2026-05-04 11:20 | 47.52874 | 5.95575 | 31860 ft | 452 kts | 272° |
| 2026-05-04 11:20 | 47.53441 | 5.90988 | 32123 ft | 457 kts | 279° |
| 2026-05-04 11:20 | 47.54436 | 5.86498 | 32461 ft | 462 kts | 287° |
| 2026-05-04 11:20 | 47.55889 | 5.82217 | 32737 ft | 469 kts | 296° |
| 2026-05-04 11:22 | 47.71169 | 5.56681 | 34022 ft | 465 kts | 307° |
| 2026-05-04 11:22 | 47.73385 | 5.53109 | 34018 ft | 463 kts | 307° |
| 2026-05-04 11:23 | 47.77701 | 5.46091 | 34025 ft | 463 kts | 307° |
| 2026-05-04 11:25 | 47.92237 | 5.22299 | 33996 ft | 466 kts | 307° |
| 2026-05-04 11:25 | 47.96592 | 5.15131 | 34001 ft | 466 kts | 307° |
| 2026-05-04 11:27 | 48.16164 | 4.82702 | 33987 ft | 467 kts | 306° |
| 2026-05-04 11:28 | 48.20504 | 4.75456 | 33986 ft | 466 kts | 306° |
| 2026-05-04 11:28 | 48.24754 | 4.68122 | 33999 ft | 463 kts | 300° |
| 2026-05-04 11:29 | 48.27697 | 4.59692 | 34082 ft | 452 kts | 282° |
| 2026-05-04 11:29 | 48.28945 | 4.50511 | 34248 ft | 449 kts | 273° |
| 2026-05-04 11:31 | 48.31844 | 4.17942 | 35281 ft | 451 kts | 272° |
| 2026-05-04 11:33 | 48.34718 | 3.85402 | 35994 ft | 446 kts | 272° |
| 2026-05-04 11:33 | 48.35515 | 3.76169 | 35987 ft | 445 kts | 272° |
| 2026-05-04 11:34 | 48.36303 | 3.66937 | 35972 ft | 445 kts | 272° |
| 2026-05-04 11:34 | 48.37080 | 3.57755 | 35972 ft | 445 kts | 272° |
| 2026-05-04 11:35 | 48.37853 | 3.48525 | 35969 ft | 445 kts | 272° |
| 2026-05-04 11:35 | 48.38622 | 3.39269 | 35981 ft | 446 kts | 272° |
| 2026-05-04 11:36 | 48.39384 | 3.29981 | 35977 ft | 447 kts | 272° |
| 2026-05-04 11:36 | 48.40140 | 3.20685 | 35979 ft | 447 kts | 272° |
| 2026-05-04 11:37 | 48.40884 | 3.11454 | 35973 ft | 447 kts | 272° |
| 2026-05-04 11:37 | 48.41624 | 3.02170 | 35987 ft | 447 kts | 272° |
| 2026-05-04 11:38 | 48.42939 | 2.92901 | 36070 ft | 458 kts | 280° |
| 2026-05-04 11:38 | 48.43792 | 2.88277 | 36202 ft | 458 kts | 281° |
| 2026-05-04 11:38 | 48.44676 | 2.83663 | 36374 ft | 458 kts | 282° |
| 2026-05-04 11:39 | 48.45571 | 2.79067 | 36551 ft | 457 kts | 282° |
| 2026-05-04 11:39 | 48.46464 | 2.74463 | 36696 ft | 457 kts | 281° |
| 2026-05-04 11:40 | 48.51702 | 2.46889 | 37462 ft | 457 kts | 282° |
| 2026-05-04 11:41 | 48.52568 | 2.42275 | 37577 ft | 457 kts | 282° |
| 2026-05-04 11:41 | 48.53430 | 2.37672 | 37716 ft | 456 kts | 282° |
| 2026-05-04 11:41 | 48.54290 | 2.33066 | 37823 ft | 456 kts | 282° |
| 2026-05-04 11:41 | 48.55149 | 2.28457 | 37932 ft | 456 kts | 282° |
| 2026-05-04 11:42 | 48.56005 | 2.23854 | 37982 ft | 457 kts | 282° |
| 2026-05-04 11:42 | 48.57674 | 2.14596 | 37980 ft | 455 kts | 279° |
| 2026-05-04 11:43 | 48.58967 | 2.05290 | 37968 ft | 453 kts | 277° |
| 2026-05-04 11:43 | 48.60177 | 1.95952 | 37969 ft | 453 kts | 277° |
| 2026-05-04 11:44 | 48.61427 | 1.86659 | 37976 ft | 454 kts | 278° |
| 2026-05-04 11:44 | 48.62714 | 1.77315 | 37978 ft | 454 kts | 278° |
| 2026-05-04 11:45 | 48.64002 | 1.67965 | 37966 ft | 454 kts | 278° |
| 2026-05-04 11:45 | 48.65285 | 1.58595 | 37981 ft | 456 kts | 278° |
| 2026-05-04 11:46 | 48.66553 | 1.49188 | 37963 ft | 456 kts | 278° |
| 2026-05-04 11:46 | 48.67801 | 1.39841 | 37981 ft | 456 kts | 278° |
| 2026-05-04 11:47 | 48.69054 | 1.30435 | 37967 ft | 456 kts | 278° |
| 2026-05-04 11:47 | 48.70301 | 1.21013 | 37975 ft | 456 kts | 278° |
| 2026-05-04 11:48 | 48.71536 | 1.11593 | 37985 ft | 456 kts | 278° |
| 2026-05-04 11:48 | 48.72765 | 1.02164 | 37973 ft | 456 kts | 278° |
| 2026-05-04 11:49 | 48.73989 | 0.92725 | 37977 ft | 456 kts | 278° |
| 2026-05-04 11:49 | 48.75204 | 0.83287 | 37980 ft | 456 kts | 278° |
| 2026-05-04 11:50 | 48.76412 | 0.73895 | 37970 ft | 457 kts | 278° |
| 2026-05-04 11:50 | 48.77622 | 0.64437 | 37967 ft | 457 kts | 278° |
| 2026-05-04 11:51 | 48.78823 | 0.54973 | 37968 ft | 457 kts | 278° |
| 2026-05-04 11:51 | 48.80212 | 0.45546 | 37965 ft | 458 kts | 282° |
| 2026-05-04 11:52 | 48.81984 | 0.36249 | 37967 ft | 459 kts | 283° |
| 2026-05-04 11:52 | 48.83763 | 0.26933 | 37972 ft | 459 kts | 283° |
| 2026-05-04 11:53 | 48.85462 | 0.17636 | 37969 ft | 459 kts | 282° |
| 2026-05-04 11:53 | 48.87131 | 0.08271 | 37974 ft | 459 kts | 282° |
| 2026-05-04 11:55 | 48.93731 | -0.29329 | 37999 ft | 462 kts | 282° |
| 2026-05-04 11:56 | 48.95336 | -0.38823 | 38005 ft | 461 kts | 281° |
| 2026-05-04 11:56 | 48.96919 | -0.48299 | 38010 ft | 461 kts | 281° |
| 2026-05-04 11:57 | 48.98498 | -0.57769 | 38009 ft | 461 kts | 281° |
| 2026-05-04 11:57 | 49.00067 | -0.67196 | 38010 ft | 461 kts | 281° |
| 2026-05-04 11:58 | 49.01634 | -0.76667 | 38009 ft | 461 kts | 281° |
| 2026-05-04 11:58 | 49.03196 | -0.86158 | 38004 ft | 461 kts | 281° |
| 2026-05-04 11:59 | 49.04748 | -0.95652 | 37996 ft | 462 kts | 281° |
| 2026-05-04 11:59 | 49.06294 | -1.05162 | 38000 ft | 462 kts | 281° |
| 2026-05-04 12:00 | 49.07834 | -1.14678 | 38004 ft | 462 kts | 281° |
| 2026-05-04 12:00 | 49.09375 | -1.24194 | 38004 ft | 462 kts | 281° |
| 2026-05-04 12:01 | 49.10917 | -1.33717 | 38023 ft | 462 kts | 281° |
| 2026-05-04 12:02 | 49.16267 | -1.67183 | 37999 ft | 464 kts | 281° |
| 2026-05-04 12:03 | 49.17778 | -1.76765 | 38010 ft | 464 kts | 281° |
| 2026-05-04 12:03 | 49.19288 | -1.86399 | 38007 ft | 466 kts | 281° |
| 2026-05-04 12:04 | 49.20783 | -1.95988 | 38018 ft | 467 kts | 281° |
| 2026-05-04 12:04 | 49.22282 | -2.05656 | 38014 ft | 467 kts | 281° |
| 2026-05-04 12:05 | 49.23892 | -2.15283 | 38015 ft | 467 kts | 283° |
| 2026-05-04 12:05 | 49.25576 | -2.24899 | 38020 ft | 467 kts | 283° |
| 2026-05-04 12:06 | 49.27243 | -2.34538 | 38019 ft | 469 kts | 282° |
| 2026-05-04 12:06 | 49.28887 | -2.44205 | 38020 ft | 469 kts | 282° |
| 2026-05-04 12:07 | 49.30519 | -2.53903 | 38019 ft | 470 kts | 282° |
| 2026-05-04 12:07 | 49.32142 | -2.63600 | 38021 ft | 470 kts | 282° |
| 2026-05-04 12:08 | 49.33748 | -2.73249 | 38024 ft | 470 kts | 282° |
| 2026-05-04 12:08 | 49.35360 | -2.82986 | 38022 ft | 471 kts | 282° |
| 2026-05-04 12:09 | 49.36964 | -2.92725 | 38022 ft | 471 kts | 282° |
| 2026-05-04 12:09 | 49.38564 | -3.02497 | 38021 ft | 471 kts | 282° |
| 2026-05-04 12:10 | 49.40142 | -3.12193 | 38030 ft | 471 kts | 282° |
| 2026-05-04 12:10 | 49.41722 | -3.21957 | 38017 ft | 471 kts | 282° |
| 2026-05-04 12:11 | 49.43027 | -3.30071 | 38021 ft | 471 kts | 282° |
| 2026-05-04 12:11 | 49.44592 | -3.39845 | 38025 ft | 471 kts | 282° |
| 2026-05-04 12:12 | 49.46151 | -3.49643 | 38027 ft | 471 kts | 282° |
| 2026-05-04 12:12 | 49.47699 | -3.59427 | 38023 ft | 471 kts | 282° |
| 2026-05-04 12:14 | 49.53818 | -3.98699 | 38020 ft | 473 kts | 282° |
| 2026-05-04 12:15 | 49.55330 | -4.08550 | 38027 ft | 473 kts | 282° |
| 2026-05-04 12:15 | 49.56835 | -4.18417 | 38023 ft | 473 kts | 282° |
| 2026-05-04 12:16 | 49.58352 | -4.28288 | 38019 ft | 473 kts | 284° |
| 2026-05-04 12:16 | 49.60978 | -4.37578 | 38022 ft | 474 kts | 299° |
| 2026-05-04 12:17 | 49.64393 | -4.46227 | 38020 ft | 476 kts | 301° |
| 2026-05-04 12:17 | 49.67953 | -4.54846 | 38022 ft | 476 kts | 302° |
| 2026-05-04 12:18 | 49.71511 | -4.63483 | 38021 ft | 476 kts | 302° |
| 2026-05-04 12:18 | 49.75038 | -4.72133 | 38021 ft | 476 kts | 302° |
| 2026-05-04 12:19 | 49.78556 | -4.80821 | 38020 ft | 476 kts | 302° |
| 2026-05-04 12:19 | 49.82071 | -4.89532 | 38020 ft | 476 kts | 301° |
| 2026-05-04 12:20 | 49.85551 | -4.98185 | 38021 ft | 476 kts | 301° |
| 2026-05-04 12:20 | 49.89046 | -5.06901 | 38018 ft | 476 kts | 302° |
| 2026-05-04 12:21 | 49.92542 | -5.15648 | 38001 ft | 476 kts | 301° |
| 2026-05-04 12:21 | 49.96029 | -5.24401 | 37997 ft | 476 kts | 301° |
| 2026-05-04 12:22 | 49.99510 | -5.33168 | 37995 ft | 476 kts | 301° |
| 2026-05-04 12:22 | 50.02982 | -5.41944 | 37997 ft | 476 kts | 301° |
| 2026-05-04 12:23 | 50.06451 | -5.50743 | 37999 ft | 477 kts | 301° |
| 2026-05-04 12:23 | 50.09916 | -5.59558 | 38006 ft | 477 kts | 302° |
| 2026-05-04 12:24 | 50.13357 | -5.68341 | 37993 ft | 478 kts | 301° |
| 2026-05-04 12:24 | 50.16816 | -5.77202 | 37993 ft | 478 kts | 301° |
| 2026-05-04 12:25 | 50.20263 | -5.86063 | 37999 ft | 478 kts | 301° |
| 2026-05-04 12:25 | 50.23704 | -5.94935 | 38007 ft | 478 kts | 301° |
| 2026-05-04 12:26 | 50.27139 | -6.03826 | 38009 ft | 477 kts | 302° |
| 2026-05-04 12:26 | 50.30548 | -6.12679 | 38018 ft | 478 kts | 301° |
| 2026-05-04 12:27 | 50.33970 | -6.21594 | 38018 ft | 478 kts | 301° |
| 2026-05-04 12:27 | 50.37382 | -6.30516 | 38018 ft | 478 kts | 301° |
| 2026-05-04 12:28 | 50.40793 | -6.39465 | 38018 ft | 478 kts | 301° |
| 2026-05-04 12:28 | 50.44197 | -6.48426 | 38018 ft | 478 kts | 301° |
| 2026-05-04 12:29 | 50.47572 | -6.57341 | 38019 ft | 478 kts | 301° |
| 2026-05-04 12:29 | 50.50956 | -6.66315 | 38023 ft | 478 kts | 301° |
| 2026-05-04 12:30 | 50.54345 | -6.75329 | 38028 ft | 478 kts | 301° |
| 2026-05-04 12:30 | 50.57729 | -6.84361 | 38024 ft | 478 kts | 301° |
| 2026-05-04 12:31 | 50.61104 | -6.93401 | 38028 ft | 478 kts | 301° |
| 2026-05-04 12:31 | 50.64444 | -7.02380 | 38029 ft | 478 kts | 302° |
| 2026-05-04 12:32 | 50.69472 | -7.15956 | 38036 ft | 478 kts | 302° |
| 2026-05-04 12:33 | 50.72823 | -7.25049 | 38035 ft | 480 kts | 302° |
| 2026-05-04 12:33 | 50.76170 | -7.34150 | 38044 ft | 478 kts | 301° |
| 2026-05-04 12:34 | 50.79500 | -7.43252 | 38050 ft | 478 kts | 302° |
| 2026-05-04 12:34 | 50.82838 | -7.52408 | 38054 ft | 483 kts | 301° |
| 2026-05-04 12:35 | 50.86199 | -7.61648 | 38053 ft | 483 kts | 302° |
| 2026-05-04 12:35 | 50.89496 | -7.70740 | 38054 ft | 477 kts | 302° |
| 2026-05-04 12:36 | 50.92789 | -7.79870 | 38066 ft | 476 kts | 302° |
| 2026-05-04 12:36 | 50.96092 | -7.89060 | 38064 ft | 480 kts | 302° |
| 2026-05-04 12:37 | 50.99391 | -7.98262 | 38064 ft | 479 kts | 302° |
| 2026-05-04 12:37 | 51.02744 | -8.07348 | 38062 ft | 480 kts | 304° |
| 2026-05-04 12:38 | 51.06268 | -8.16320 | 38061 ft | 476 kts | 304° |
| 2026-05-04 12:38 | 51.09765 | -8.25241 | 38068 ft | 474 kts | 304° |
| 2026-05-04 12:39 | 51.13217 | -8.34170 | 38068 ft | 473 kts | 303° |
| 2026-05-04 12:39 | 51.16645 | -8.43118 | 38069 ft | 473 kts | 303° |
| 2026-05-04 12:40 | 51.20070 | -8.52096 | 38071 ft | 473 kts | 303° |
| 2026-05-04 12:40 | 51.23489 | -8.61087 | 38067 ft | 473 kts | 303° |
| 2026-05-04 12:41 | 51.26868 | -8.70005 | 38064 ft | 473 kts | 303° |
| 2026-05-04 12:41 | 51.30271 | -8.79014 | 38072 ft | 472 kts | 303° |
| 2026-05-04 12:42 | 51.33661 | -8.88018 | 38079 ft | 472 kts | 303° |
| 2026-05-04 12:42 | 51.37044 | -8.97037 | 38078 ft | 472 kts | 303° |
| 2026-05-04 12:43 | 51.40413 | -9.06047 | 38083 ft | 472 kts | 303° |
| 2026-05-04 12:43 | 51.43779 | -9.15086 | 38079 ft | 472 kts | 303° |
| 2026-05-04 12:44 | 51.47113 | -9.24070 | 38098 ft | 471 kts | 303° |
| 2026-05-04 12:44 | 51.50441 | -9.33069 | 38077 ft | 469 kts | 303° |
| 2026-05-04 12:45 | 51.53765 | -9.42085 | 38102 ft | 469 kts | 303° |
| 2026-05-04 12:45 | 51.57083 | -9.51120 | 38083 ft | 470 kts | 303° |
| 2026-05-04 12:46 | 51.60401 | -9.60184 | 38102 ft | 470 kts | 303° |
| 2026-05-04 12:46 | 51.63706 | -9.69248 | 38107 ft | 470 kts | 303° |
| 2026-05-04 12:47 | 51.67001 | -9.78321 | 38098 ft | 468 kts | 303° |
| 2026-05-04 12:47 | 51.70268 | -9.87345 | 38105 ft | 467 kts | 303° |
| 2026-05-04 12:48 | 51.73534 | -9.96394 | 38102 ft | 467 kts | 303° |
| 2026-05-04 12:48 | 51.76776 | -10.05413 | 38110 ft | 467 kts | 303° |
| 2026-05-04 12:49 | 51.80026 | -10.14487 | 38113 ft | 467 kts | 303° |
| 2026-05-04 12:49 | 51.83271 | -10.23579 | 38112 ft | 467 kts | 303° |
| 2026-05-04 12:50 | 51.86511 | -10.32689 | 38114 ft | 465 kts | 303° |
| 2026-05-04 12:50 | 51.89724 | -10.41757 | 38126 ft | 464 kts | 303° |
| 2026-05-04 12:51 | 51.92923 | -10.50852 | 38125 ft | 465 kts | 301° |
| 2026-05-04 12:51 | 51.95628 | -10.60410 | 38127 ft | 467 kts | 297° |
| 2026-05-04 12:52 | 51.98161 | -10.70037 | 38132 ft | 467 kts | 296° |
| 2026-05-04 12:52 | 52.00679 | -10.79763 | 38139 ft | 468 kts | 296° |
| 2026-05-04 12:53 | 52.03191 | -10.89492 | 38133 ft | 466 kts | 296° |
| 2026-05-04 12:53 | 52.05686 | -10.99168 | 38144 ft | 462 kts | 296° |
| 2026-05-04 12:54 | 52.08163 | -11.08803 | 38147 ft | 462 kts | 296° |
| 2026-05-04 12:54 | 52.10638 | -11.18469 | 38151 ft | 462 kts | 296° |
| 2026-05-04 12:55 | 52.13103 | -11.28139 | 38163 ft | 463 kts | 296° |
| 2026-05-04 12:55 | 52.15557 | -11.37811 | 38154 ft | 463 kts | 296° |
| 2026-05-04 12:56 | 52.18008 | -11.47513 | 38162 ft | 462 kts | 296° |
| 2026-05-04 12:56 | 52.20427 | -11.57131 | 38151 ft | 461 kts | 295° |
| 2026-05-04 12:57 | 52.22851 | -11.66813 | 38172 ft | 460 kts | 295° |
| 2026-05-04 12:57 | 52.25263 | -11.76484 | 38179 ft | 460 kts | 295° |
| 2026-05-04 12:58 | 52.27666 | -11.86160 | 38160 ft | 460 kts | 295° |
| 2026-05-04 12:58 | 52.29663 | -11.94236 | 38165 ft | 460 kts | 295° |
| 2026-05-04 12:59 | 52.32438 | -12.05507 | 38175 ft | 459 kts | 295° |
| 2026-05-04 12:59 | 52.34430 | -12.13636 | 38179 ft | 459 kts | 295° |
| 2026-05-04 13:00 | 52.36785 | -12.23280 | 38180 ft | 459 kts | 295° |
| 2026-05-04 13:00 | 52.39147 | -12.32999 | 38181 ft | 459 kts | 294° |
| 2026-05-04 13:01 | 52.41498 | -12.42717 | 38183 ft | 458 kts | 294° |
| 2026-05-04 13:01 | 52.43824 | -12.52373 | 38171 ft | 458 kts | 294° |
| 2026-05-04 13:02 | 52.46154 | -12.62086 | 38184 ft | 458 kts | 294° |
| 2026-05-04 13:02 | 52.48473 | -12.71799 | 38183 ft | 457 kts | 294° |
| 2026-05-04 13:03 | 52.50783 | -12.81519 | 38183 ft | 457 kts | 294° |
| 2026-05-04 13:03 | 52.53088 | -12.91261 | 38186 ft | 458 kts | 294° |
| 2026-05-04 13:04 | 52.55386 | -13.01013 | 38187 ft | 457 kts | 293° |
| 2026-05-04 13:04 | 52.57669 | -13.10751 | 38183 ft | 456 kts | 292° |
| 2026-05-04 13:05 | 52.59939 | -13.20478 | 38194 ft | 456 kts | 292° |
| 2026-05-04 13:05 | 52.62205 | -13.30234 | 38189 ft | 456 kts | 292° |
| 2026-05-04 13:06 | 52.64445 | -13.39917 | 38195 ft | 456 kts | 292° |
| 2026-05-04 13:06 | 52.66692 | -13.49678 | 38195 ft | 456 kts | 292° |
| 2026-05-04 13:07 | 52.68935 | -13.59461 | 38199 ft | 456 kts | 292° |
| 2026-05-04 13:07 | 52.71166 | -13.69241 | 38190 ft | 456 kts | 292° |
| 2026-05-04 13:08 | 52.73390 | -13.79039 | 38198 ft | 456 kts | 292° |
| 2026-05-04 13:08 | 52.75606 | -13.88845 | 38197 ft | 456 kts | 292° |
| 2026-05-04 13:09 | 52.77812 | -13.98650 | 38197 ft | 456 kts | 291° |
| 2026-05-04 13:09 | 52.80011 | -14.08471 | 38197 ft | 456 kts | 291° |
| 2026-05-04 13:10 | 52.82202 | -14.18301 | 38197 ft | 456 kts | 291° |
| 2026-05-04 13:10 | 52.84387 | -14.28152 | 38201 ft | 456 kts | 291° |
| 2026-05-04 13:11 | 52.86551 | -14.37956 | 38209 ft | 456 kts | 291° |
| 2026-05-04 13:11 | 52.88720 | -14.47824 | 38202 ft | 455 kts | 291° |
| 2026-05-04 13:12 | 52.90871 | -14.57665 | 38206 ft | 454 kts | 291° |
| 2026-05-04 13:12 | 52.93016 | -14.67517 | 38206 ft | 455 kts | 290° |
| 2026-05-04 13:13 | 52.95154 | -14.77390 | 38207 ft | 455 kts | 290° |
| 2026-05-04 13:13 | 52.97273 | -14.87223 | 38201 ft | 455 kts | 290° |
| 2026-05-04 13:14 | 52.99393 | -14.97104 | 38266 ft | 454 kts | 290° |
| 2026-05-04 13:14 | 53.01536 | -15.06975 | 38523 ft | 453 kts | 291° |
| 2026-05-04 13:14 | 53.02641 | -15.11873 | 38628 ft | 454 kts | 291° |
| 2026-05-04 13:15 | 53.03762 | -15.16800 | 38740 ft | 453 kts | 291° |
| 2026-05-04 13:15 | 53.04870 | -15.21684 | 38869 ft | 453 kts | 290° |
| 2026-05-04 13:15 | 53.05978 | -15.26598 | 38943 ft | 453 kts | 290° |
| 2026-05-04 13:15 | 53.07076 | -15.31499 | 39064 ft | 452 kts | 290° |
| 2026-05-04 13:16 | 53.08173 | -15.36418 | 39098 ft | 453 kts | 290° |
| 2026-05-04 13:16 | 53.10342 | -15.46205 | 39203 ft | 454 kts | 290° |
| 2026-05-04 13:17 | 53.12522 | -15.56099 | 39216 ft | 453 kts | 290° |
| 2026-05-04 13:17 | 53.14678 | -15.65921 | 39219 ft | 450 kts | 290° |
| 2026-05-04 13:18 | 53.16810 | -15.75684 | 39211 ft | 447 kts | 290° |
| 2026-05-04 13:18 | 53.18924 | -15.85407 | 39220 ft | 450 kts | 289° |
| 2026-05-04 13:19 | 53.21045 | -15.95209 | 39214 ft | 448 kts | 289° |
| 2026-05-04 13:19 | 53.23156 | -16.05011 | 39216 ft | 448 kts | 289° |
| 2026-05-04 13:20 | 53.25254 | -16.14802 | 39213 ft | 446 kts | 289° |
| 2026-05-04 13:20 | 53.27342 | -16.24591 | 39216 ft | 446 kts | 289° |
| 2026-05-04 13:21 | 53.29417 | -16.34363 | 39219 ft | 445 kts | 289° |
| 2026-05-04 13:21 | 53.31470 | -16.44082 | 39219 ft | 447 kts | 289° |
| 2026-05-04 13:22 | 53.33530 | -16.53884 | 39219 ft | 447 kts | 289° |
| 2026-05-04 13:22 | 53.35593 | -16.63741 | 39225 ft | 448 kts | 289° |
| 2026-05-04 13:23 | 53.37636 | -16.73559 | 39214 ft | 445 kts | 289° |
| 2026-05-04 13:23 | 53.39667 | -16.83358 | 39218 ft | 444 kts | 289° |
| 2026-05-04 13:24 | 53.41670 | -16.93077 | 39230 ft | 443 kts | 289° |
| 2026-05-04 13:24 | 53.43677 | -17.02860 | 39222 ft | 445 kts | 289° |
| 2026-05-04 13:25 | 53.46682 | -17.17603 | 39235 ft | 446 kts | 289° |
| 2026-05-04 13:25 | 53.48667 | -17.27399 | 39236 ft | 445 kts | 289° |
| 2026-05-04 13:26 | 53.50652 | -17.37243 | 39229 ft | 444 kts | 289° |
| 2026-05-04 13:26 | 53.52619 | -17.47050 | 39234 ft | 441 kts | 288° |
| 2026-05-04 13:27 | 53.54572 | -17.56833 | 39238 ft | 442 kts | 288° |
| 2026-05-04 13:27 | 53.56526 | -17.66675 | 39244 ft | 443 kts | 288° |
| 2026-05-04 13:28 | 53.58466 | -17.76490 | 39235 ft | 445 kts | 288° |
| 2026-05-04 13:28 | 53.60408 | -17.86371 | 39238 ft | 443 kts | 288° |
| 2026-05-04 13:29 | 53.62338 | -17.96241 | 39243 ft | 443 kts | 288° |
| 2026-05-04 13:29 | 53.64253 | -18.06080 | 39258 ft | 441 kts | 288° |
| 2026-05-04 13:30 | 53.66162 | -18.15937 | 39247 ft | 442 kts | 288° |
| 2026-05-04 13:30 | 53.68061 | -18.25800 | 39252 ft | 443 kts | 288° |
| 2026-05-04 13:31 | 53.69961 | -18.35717 | 39250 ft | 443 kts | 288° |
| 2026-05-04 13:31 | 53.71836 | -18.45553 | 39252 ft | 443 kts | 288° |
| 2026-05-04 13:32 | 53.73712 | -18.55447 | 39244 ft | 442 kts | 288° |
| 2026-05-04 13:32 | 53.75580 | -18.65354 | 39244 ft | 442 kts | 288° |
| 2026-05-04 13:33 | 53.77440 | -18.75263 | 39250 ft | 442 kts | 288° |
| 2026-05-04 13:33 | 53.79294 | -18.85198 | 39258 ft | 443 kts | 287° |
| 2026-05-04 13:34 | 53.81139 | -18.95136 | 39260 ft | 442 kts | 287° |
| 2026-05-04 13:34 | 53.82963 | -19.05018 | 39262 ft | 440 kts | 287° |
| 2026-05-04 13:35 | 53.85694 | -19.19906 | 39254 ft | 442 kts | 287° |
| 2026-05-04 13:36 | 53.87508 | -19.29857 | 39260 ft | 443 kts | 287° |
| 2026-05-04 13:36 | 53.89315 | -19.39831 | 39265 ft | 442 kts | 287° |
| 2026-05-04 13:37 | 53.91110 | -19.49790 | 39265 ft | 441 kts | 287° |
| 2026-05-04 13:37 | 53.92885 | -19.59691 | 39270 ft | 440 kts | 287° |
| 2026-05-04 13:38 | 53.94659 | -19.69646 | 39276 ft | 441 kts | 287° |
| 2026-05-04 13:38 | 53.96433 | -19.79652 | 39274 ft | 443 kts | 287° |
| 2026-05-04 13:39 | 53.98201 | -19.89680 | 39264 ft | 443 kts | 287° |
| 2026-05-04 13:39 | 53.99806 | -19.99759 | 39282 ft | 442 kts | 279° |
| 2026-05-04 13:40 | 54.00448 | -20.10067 | 39287 ft | 441 kts | 275° |
| 2026-05-04 13:40 | 54.00878 | -20.20484 | 39278 ft | 443 kts | 274° |
| 2026-05-04 13:41 | 54.01268 | -20.30936 | 39276 ft | 442 kts | 274° |
| 2026-05-04 13:41 | 54.01657 | -20.41361 | 39291 ft | 442 kts | 274° |
| 2026-05-04 13:42 | 54.02243 | -20.57034 | 39280 ft | 442 kts | 274° |
| 2026-05-04 13:42 | 54.02622 | -20.67424 | 39298 ft | 442 kts | 274° |
| 2026-05-04 13:43 | 54.02931 | -20.76108 | 39298 ft | 442 kts | 274° |
| 2026-05-04 13:43 | 54.03355 | -20.88321 | 39304 ft | 442 kts | 274° |
| 2026-05-04 13:44 | 54.03708 | -20.98770 | 39293 ft | 443 kts | 274° |
| 2026-05-04 13:44 | 54.04052 | -21.09237 | 39294 ft | 442 kts | 274° |
| 2026-05-04 13:45 | 54.04331 | -21.17923 | 39304 ft | 443 kts | 273° |
| 2026-05-04 13:45 | 54.04712 | -21.30107 | 39302 ft | 443 kts | 273° |
| 2026-05-04 13:46 | 54.04977 | -21.38866 | 39307 ft | 442 kts | 273° |
| 2026-05-04 13:46 | 54.05287 | -21.49344 | 39305 ft | 443 kts | 273° |
| 2026-05-04 13:47 | 54.05586 | -21.59758 | 39306 ft | 443 kts | 273° |
| 2026-05-04 13:47 | 54.05878 | -21.70227 | 39308 ft | 443 kts | 273° |
| 2026-05-04 13:48 | 54.06160 | -21.80719 | 39310 ft | 443 kts | 273° |
| 2026-05-04 13:48 | 54.06433 | -21.91196 | 39308 ft | 443 kts | 273° |
| 2026-05-04 13:49 | 54.06697 | -22.01674 | 39307 ft | 443 kts | 273° |
| 2026-05-04 13:49 | 54.06952 | -22.12170 | 39314 ft | 443 kts | 272° |
| 2026-05-04 13:50 | 54.07198 | -22.22658 | 39315 ft | 444 kts | 272° |
| 2026-05-04 13:50 | 54.07434 | -22.33105 | 39316 ft | 443 kts | 272° |
| 2026-05-04 13:51 | 54.07662 | -22.43598 | 39315 ft | 443 kts | 272° |
| 2026-05-04 13:51 | 54.07881 | -22.54108 | 39320 ft | 443 kts | 272° |
| 2026-05-04 13:52 | 54.08190 | -22.69787 | 39320 ft | 443 kts | 272° |
| 2026-05-04 13:53 | 54.08387 | -22.80300 | 39324 ft | 443 kts | 272° |
| 2026-05-04 13:53 | 54.08573 | -22.90793 | 39324 ft | 443 kts | 272° |
| 2026-05-04 13:54 | 54.08837 | -23.06569 | 39329 ft | 443 kts | 272° |
| 2026-05-04 13:55 | 54.09078 | -23.22256 | 39333 ft | 444 kts | 272° |
| 2026-05-04 13:55 | 54.09300 | -23.38018 | 39331 ft | 443 kts | 271° |
| 2026-05-04 13:56 | 54.09437 | -23.48529 | 39336 ft | 444 kts | 271° |
| 2026-05-04 13:57 | 54.09625 | -23.64305 | 39336 ft | 444 kts | 271° |
| 2026-05-04 13:58 | 54.09843 | -23.85269 | 39341 ft | 444 kts | 271° |
| 2026-05-04 13:58 | 54.09982 | -24.01046 | 39345 ft | 444 kts | 271° |
| 2026-05-04 13:59 | 54.10064 | -24.11568 | 39349 ft | 444 kts | 271° |
| 2026-05-04 14:00 | 54.10169 | -24.27360 | 39351 ft | 444 kts | 271° |
| 2026-05-04 14:00 | 54.10254 | -24.43129 | 39211 ft | 443 kts | 271° |
| 2026-05-04 14:01 | 54.10277 | -24.48328 | 38988 ft | 443 kts | 270° |
| 2026-05-04 14:01 | 54.10298 | -24.53572 | 38704 ft | 442 kts | 271° |
| 2026-05-04 14:01 | 54.10334 | -24.64070 | 38354 ft | 441 kts | 270° |
| 2026-05-04 14:02 | 54.10348 | -24.69307 | 38356 ft | 442 kts | 270° |
| 2026-05-04 14:02 | 54.10370 | -24.79724 | 38357 ft | 442 kts | 270° |
| 2026-05-04 14:03 | 54.10383 | -24.90183 | 38360 ft | 442 kts | 270° |
| 2026-05-04 14:03 | 54.10387 | -25.00646 | 38359 ft | 441 kts | 270° |
| 2026-05-04 14:04 | 54.10376 | -25.16350 | 38362 ft | 442 kts | 270° |
| 2026-05-04 14:04 | 54.10357 | -25.26844 | 38362 ft | 442 kts | 270° |
| 2026-05-04 14:05 | 54.10312 | -25.42569 | 38365 ft | 442 kts | 270° |
| 2026-05-04 14:06 | 54.10271 | -25.53048 | 38368 ft | 442 kts | 270° |
| 2026-05-04 14:06 | 54.10220 | -25.63519 | 38368 ft | 442 kts | 270° |
| 2026-05-04 14:07 | 54.10161 | -25.73919 | 38368 ft | 441 kts | 270° |
| 2026-05-04 14:07 | 54.10092 | -25.84382 | 38371 ft | 441 kts | 269° |
| 2026-05-04 14:08 | 54.10014 | -25.94839 | 38370 ft | 441 kts | 269° |
| 2026-05-04 14:08 | 54.09927 | -26.05319 | 38374 ft | 441 kts | 269° |
| 2026-05-04 14:09 | 54.09780 | -26.20999 | 38373 ft | 441 kts | 269° |
| 2026-05-04 14:10 | 54.09613 | -26.36610 | 38373 ft | 441 kts | 269° |
| 2026-05-04 14:10 | 54.09490 | -26.47067 | 38382 ft | 441 kts | 269° |
| 2026-05-04 14:11 | 54.09358 | -26.57519 | 38376 ft | 441 kts | 269° |
| 2026-05-04 14:11 | 54.09143 | -26.73193 | 38379 ft | 441 kts | 269° |
| 2026-05-04 14:12 | 54.08989 | -26.83629 | 38372 ft | 441 kts | 269° |
| 2026-05-04 14:13 | 54.08741 | -26.99235 | 38379 ft | 441 kts | 269° |
| 2026-05-04 14:13 | 54.08564 | -27.09704 | 38379 ft | 441 kts | 269° |
| 2026-05-04 14:14 | 54.08377 | -27.20146 | 38384 ft | 441 kts | 268° |
| 2026-05-04 14:14 | 54.08081 | -27.35813 | 38384 ft | 441 kts | 268° |
| 2026-05-04 14:15 | 54.07656 | -27.56614 | 38383 ft | 441 kts | 268° |
| 2026-05-04 14:16 | 54.07314 | -27.72245 | 38386 ft | 440 kts | 268° |
| 2026-05-04 14:17 | 54.06950 | -27.87897 | 38383 ft | 440 kts | 268° |
| 2026-05-04 14:18 | 54.06568 | -28.03484 | 38380 ft | 441 kts | 268° |
| 2026-05-04 14:19 | 54.06023 | -28.24338 | 38384 ft | 441 kts | 268° |
| 2026-05-04 14:19 | 54.05737 | -28.34786 | 38384 ft | 441 kts | 268° |
| 2026-05-04 14:20 | 54.05443 | -28.45215 | 38385 ft | 441 kts | 268° |
| 2026-05-04 14:20 | 54.05139 | -28.55635 | 38384 ft | 441 kts | 268° |
| 2026-05-04 14:21 | 54.04668 | -28.71257 | 38386 ft | 441 kts | 267° |
| 2026-05-04 14:21 | 54.04344 | -28.81616 | 38387 ft | 441 kts | 267° |
| 2026-05-04 14:22 | 54.04009 | -28.92023 | 38386 ft | 441 kts | 267° |
| 2026-05-04 14:22 | 54.03665 | -29.02470 | 38386 ft | 441 kts | 267° |
| 2026-05-04 14:23 | 54.03134 | -29.18029 | 38387 ft | 440 kts | 267° |
| 2026-05-04 14:24 | 54.02768 | -29.28455 | 38390 ft | 441 kts | 267° |
| 2026-05-04 14:24 | 54.02393 | -29.38864 | 38389 ft | 441 kts | 267° |
| 2026-05-04 14:25 | 54.02008 | -29.49271 | 38389 ft | 441 kts | 267° |
| 2026-05-04 14:25 | 54.01414 | -29.64893 | 38389 ft | 441 kts | 267° |
| 2026-05-04 14:26 | 54.01007 | -29.75301 | 38386 ft | 441 kts | 267° |
| 2026-05-04 14:26 | 54.00594 | -29.85640 | 38390 ft | 441 kts | 267° |
| 2026-05-04 14:27 | 54.00171 | -29.96050 | 38392 ft | 441 kts | 266° |
| 2026-05-04 14:27 | 54.00278 | -30.06445 | 38388 ft | 440 kts | 274° |
| 2026-05-04 14:28 | 54.00669 | -30.16823 | 38390 ft | 440 kts | 274° |
| 2026-05-04 14:28 | 54.01096 | -30.27198 | 38393 ft | 440 kts | 274° |
| 2026-05-04 14:29 | 54.01906 | -30.47906 | 38394 ft | 441 kts | 274° |
| 2026-05-04 14:30 | 54.02292 | -30.58309 | 38397 ft | 441 kts | 274° |
| 2026-05-04 14:31 | 54.02854 | -30.73923 | 38394 ft | 441 kts | 274° |
| 2026-05-04 14:32 | 54.03516 | -30.93044 | 38391 ft | 441 kts | 274° |
| 2026-05-04 14:32 | 54.03861 | -31.03389 | 38392 ft | 441 kts | 274° |
| 2026-05-04 14:33 | 54.04200 | -31.13807 | 38394 ft | 441 kts | 274° |
| 2026-05-04 14:33 | 54.04530 | -31.24225 | 38393 ft | 441 kts | 274° |
| 2026-05-04 14:34 | 54.04850 | -31.34646 | 38394 ft | 441 kts | 273° |
| 2026-05-04 14:34 | 54.05163 | -31.45074 | 38394 ft | 441 kts | 273° |
| 2026-05-04 14:35 | 54.05466 | -31.55516 | 38397 ft | 441 kts | 273° |
| 2026-05-04 14:35 | 54.05760 | -31.65962 | 38394 ft | 441 kts | 273° |
| 2026-05-04 14:36 | 54.06042 | -31.76321 | 38394 ft | 441 kts | 273° |
| 2026-05-04 14:36 | 54.06319 | -31.86760 | 38393 ft | 441 kts | 273° |
| 2026-05-04 14:37 | 54.06586 | -31.97190 | 38402 ft | 441 kts | 273° |
| 2026-05-04 14:37 | 54.06843 | -32.07638 | 38393 ft | 441 kts | 273° |
| 2026-05-04 14:38 | 54.07092 | -32.18072 | 38407 ft | 441 kts | 273° |
| 2026-05-04 14:38 | 54.07332 | -32.28523 | 38386 ft | 441 kts | 273° |
| 2026-05-04 14:39 | 54.07562 | -32.38910 | 38384 ft | 441 kts | 273° |
| 2026-05-04 14:39 | 54.07784 | -32.49364 | 38401 ft | 441 kts | 273° |
| 2026-05-04 14:40 | 54.08099 | -32.65021 | 38397 ft | 441 kts | 272° |
| 2026-05-04 14:40 | 54.08298 | -32.75463 | 38392 ft | 441 kts | 272° |
| 2026-05-04 14:41 | 54.08487 | -32.85845 | 38383 ft | 441 kts | 272° |
| 2026-05-04 14:42 | 54.08840 | -33.06732 | 38395 ft | 440 kts | 272° |
| 2026-05-04 14:42 | 54.09002 | -33.17163 | 38381 ft | 440 kts | 272° |
| 2026-05-04 14:43 | 54.09155 | -33.27589 | 38397 ft | 440 kts | 272° |
| 2026-05-04 14:43 | 54.09298 | -33.37948 | 38394 ft | 440 kts | 272° |
| 2026-05-04 14:44 | 54.09434 | -33.48383 | 38393 ft | 440 kts | 272° |
| 2026-05-04 14:44 | 54.09561 | -33.58805 | 38374 ft | 440 kts | 272° |
| 2026-05-04 14:45 | 54.09678 | -33.69222 | 38381 ft | 439 kts | 272° |
| 2026-05-04 14:45 | 54.09787 | -33.79624 | 38382 ft | 439 kts | 272° |
| 2026-05-04 14:46 | 54.09886 | -33.90035 | 38383 ft | 439 kts | 272° |
| 2026-05-04 14:46 | 54.09976 | -34.00389 | 38400 ft | 439 kts | 272° |
| 2026-05-04 14:47 | 54.10058 | -34.10805 | 38376 ft | 440 kts | 272° |
| 2026-05-04 14:47 | 54.10131 | -34.21236 | 38386 ft | 440 kts | 272° |
| 2026-05-04 14:48 | 54.10195 | -34.31682 | 38386 ft | 440 kts | 272° |
| 2026-05-04 14:48 | 54.10249 | -34.42125 | 38388 ft | 440 kts | 272° |
| 2026-05-04 14:49 | 54.10294 | -34.52556 | 38388 ft | 440 kts | 272° |
| 2026-05-04 14:49 | 54.10331 | -34.62996 | 38380 ft | 440 kts | 271° |
| 2026-05-04 14:50 | 54.10358 | -34.73428 | 38377 ft | 440 kts | 271° |
| 2026-05-04 14:50 | 54.10377 | -34.83799 | 38365 ft | 440 kts | 271° |
| 2026-05-04 14:51 | 54.10386 | -34.94213 | 38374 ft | 439 kts | 272° |
| 2026-05-04 14:51 | 54.10387 | -35.04624 | 38377 ft | 439 kts | 271° |
| 2026-05-04 14:52 | 54.10378 | -35.15027 | 38374 ft | 439 kts | 271° |
| 2026-05-04 14:52 | 54.10360 | -35.25445 | 38373 ft | 439 kts | 271° |
| 2026-05-04 14:53 | 54.10334 | -35.35861 | 38371 ft | 439 kts | 271° |
| 2026-05-04 14:53 | 54.10298 | -35.46276 | 38371 ft | 439 kts | 271° |
| 2026-05-04 14:54 | 54.10253 | -35.56674 | 38371 ft | 437 kts | 271° |
| 2026-05-04 14:54 | 54.10200 | -35.67030 | 38369 ft | 436 kts | 271° |
| 2026-05-04 14:55 | 54.10139 | -35.77312 | 38367 ft | 436 kts | 271° |
| 2026-05-04 14:55 | 54.10068 | -35.87664 | 38361 ft | 436 kts | 271° |
| 2026-05-04 14:56 | 54.09989 | -35.98012 | 38361 ft | 437 kts | 271° |
| 2026-05-04 14:56 | 54.09901 | -36.08297 | 38361 ft | 437 kts | 271° |
| 2026-05-04 14:57 | 54.09803 | -36.18644 | 38355 ft | 435 kts | 271° |
| 2026-05-04 14:57 | 54.09697 | -36.28919 | 38360 ft | 432 kts | 271° |
| 2026-05-04 14:58 | 54.09584 | -36.39159 | 38353 ft | 432 kts | 271° |
| 2026-05-04 14:58 | 54.09461 | -36.49408 | 38352 ft | 432 kts | 271° |
| 2026-05-04 14:59 | 54.09331 | -36.59586 | 38345 ft | 432 kts | 271° |
| 2026-05-04 15:00 | 54.09118 | -36.74952 | 38347 ft | 432 kts | 271° |
| 2026-05-04 15:00 | 54.08964 | -36.85157 | 38354 ft | 430 kts | 271° |
| 2026-05-04 15:01 | 54.08721 | -37.00375 | 38332 ft | 428 kts | 271° |
| 2026-05-04 15:01 | 54.08549 | -37.10519 | 38347 ft | 428 kts | 271° |
| 2026-05-04 15:02 | 54.08368 | -37.20669 | 38327 ft | 428 kts | 271° |
| 2026-05-04 15:02 | 54.08179 | -37.30757 | 38341 ft | 428 kts | 271° |
| 2026-05-04 15:03 | 54.07980 | -37.40905 | 38302 ft | 428 kts | 271° |
| 2026-05-04 15:03 | 54.07773 | -37.51020 | 38331 ft | 425 kts | 271° |
| 2026-05-04 15:04 | 54.07559 | -37.61064 | 38327 ft | 424 kts | 271° |
| 2026-05-04 15:04 | 54.07339 | -37.71050 | 38319 ft | 424 kts | 271° |
| 2026-05-04 15:05 | 54.07110 | -37.81087 | 38326 ft | 424 kts | 271° |
| 2026-05-04 15:05 | 54.06871 | -37.91117 | 38321 ft | 424 kts | 271° |
| 2026-05-04 15:06 | 54.06625 | -38.01152 | 38313 ft | 424 kts | 271° |
| 2026-05-04 15:07 | 54.06241 | -38.16062 | 38309 ft | 418 kts | 271° |
| 2026-05-04 15:07 | 54.05978 | -38.25929 | 38306 ft | 417 kts | 271° |
| 2026-05-04 15:08 | 54.05708 | -38.35787 | 38303 ft | 417 kts | 271° |
| 2026-05-04 15:08 | 54.05430 | -38.45652 | 38292 ft | 417 kts | 271° |
| 2026-05-04 15:09 | 54.05142 | -38.55522 | 38292 ft | 417 kts | 271° |
| 2026-05-04 15:09 | 54.04847 | -38.65381 | 38293 ft | 417 kts | 271° |
| 2026-05-04 15:10 | 54.04391 | -38.80092 | 38287 ft | 415 kts | 271° |
| 2026-05-04 15:11 | 54.03917 | -38.94823 | 38279 ft | 415 kts | 271° |
| 2026-05-04 15:11 | 54.03593 | -39.04577 | 38278 ft | 415 kts | 271° |
| 2026-05-04 15:12 | 54.03260 | -39.14389 | 38277 ft | 415 kts | 271° |
| 2026-05-04 15:12 | 54.02917 | -39.24216 | 38272 ft | 415 kts | 270° |
| 2026-05-04 15:13 | 54.02568 | -39.34009 | 38238 ft | 415 kts | 270° |
| 2026-05-04 15:13 | 54.02212 | -39.43740 | 38266 ft | 414 kts | 270° |
| 2026-05-04 15:14 | 54.01848 | -39.53504 | 38259 ft | 414 kts | 270° |
| 2026-05-04 15:14 | 54.01477 | -39.63262 | 38255 ft | 413 kts | 269° |
| 2026-05-04 15:15 | 54.01097 | -39.73018 | 38247 ft | 413 kts | 269° |
| 2026-05-04 15:15 | 54.00710 | -39.82753 | 38251 ft | 413 kts | 269° |
| 2026-05-04 15:16 | 54.00115 | -39.97353 | 38227 ft | 413 kts | 269° |
| 2026-05-04 15:17 | 53.99399 | -40.11786 | 38237 ft | 407 kts | 266° |
| 2026-05-04 15:17 | 53.98508 | -40.26125 | 38241 ft | 407 kts | 266° |
| 2026-05-04 15:18 | 53.97929 | -40.35691 | 38232 ft | 407 kts | 267° |
| 2026-05-04 15:19 | 53.97067 | -40.50025 | 38228 ft | 407 kts | 266° |
| 2026-05-04 15:19 | 53.96291 | -40.62712 | 38220 ft | 407 kts | 266° |
| 2026-05-04 15:20 | 53.95693 | -40.72306 | 38205 ft | 407 kts | 266° |
| 2026-05-04 15:20 | 53.95091 | -40.81855 | 38210 ft | 407 kts | 266° |
| 2026-05-04 15:21 | 53.94480 | -40.91409 | 38206 ft | 407 kts | 266° |
| 2026-05-04 15:22 | 53.93551 | -41.05724 | 38195 ft | 407 kts | 266° |
| 2026-05-04 15:22 | 53.92604 | -41.20038 | 38191 ft | 407 kts | 266° |
| 2026-05-04 15:23 | 53.91968 | -41.29511 | 38184 ft | 405 kts | 265° |
| 2026-05-04 15:23 | 53.91322 | -41.39022 | 38185 ft | 405 kts | 265° |
| 2026-05-04 15:24 | 53.90010 | -41.57997 | 38171 ft | 405 kts | 265° |
| 2026-05-04 15:25 | 53.89347 | -41.67414 | 38170 ft | 405 kts | 265° |
| 2026-05-04 15:26 | 53.88332 | -41.81629 | 38152 ft | 405 kts | 265° |
| 2026-05-04 15:26 | 53.87302 | -41.95799 | 38146 ft | 402 kts | 264° |
| 2026-05-04 15:27 | 53.86263 | -42.09877 | 38143 ft | 401 kts | 264° |
| 2026-05-04 15:28 | 53.85213 | -42.23886 | 38127 ft | 401 kts | 264° |
| 2026-05-04 15:29 | 53.84139 | -42.37968 | 38130 ft | 401 kts | 264° |
| 2026-05-04 15:30 | 53.81578 | -42.70691 | 38102 ft | 400 kts | 264° |
| 2026-05-04 15:31 | 53.80458 | -42.84650 | 38099 ft | 400 kts | 263° |
| 2026-05-04 15:32 | 53.78550 | -43.07963 | 38075 ft | 400 kts | 262° |
| 2026-05-04 15:34 | 53.76620 | -43.31168 | 38077 ft | 400 kts | 262° |
| 2026-05-04 15:34 | 53.75407 | -43.45150 | 38061 ft | 401 kts | 262° |
| 2026-05-04 15:35 | 53.74194 | -43.59142 | 38061 ft | 401 kts | 262° |
| 2026-05-04 15:36 | 53.72979 | -43.73036 | 38043 ft | 399 kts | 262° |
| 2026-05-04 15:36 | 53.72184 | -43.82305 | 38046 ft | 398 kts | 261° |
| 2026-05-04 15:37 | 53.71337 | -43.91540 | 38045 ft | 398 kts | 260° |
| 2026-05-04 15:37 | 53.70487 | -44.00776 | 38034 ft | 398 kts | 260° |
| 2026-05-04 15:38 | 53.69641 | -44.10001 | 38026 ft | 398 kts | 260° |
| 2026-05-04 15:38 | 53.68796 | -44.19174 | 38010 ft | 398 kts | 260° |
| 2026-05-04 15:39 | 53.67938 | -44.28411 | 38018 ft | 398 kts | 260° |
| 2026-05-04 15:40 | 53.66634 | -44.42291 | 37991 ft | 400 kts | 259° |
| 2026-05-04 15:40 | 53.65755 | -44.51549 | 37993 ft | 400 kts | 259° |
| 2026-05-04 15:41 | 53.64868 | -44.60808 | 37996 ft | 400 kts | 259° |
| 2026-05-04 15:41 | 53.63980 | -44.70008 | 37982 ft | 400 kts | 259° |
| 2026-05-04 15:42 | 53.63080 | -44.79253 | 37977 ft | 400 kts | 259° |
| 2026-05-04 15:42 | 53.62172 | -44.88497 | 37977 ft | 400 kts | 259° |
| 2026-05-04 15:43 | 53.61256 | -44.97748 | 37961 ft | 402 kts | 258° |
| 2026-05-04 15:43 | 53.60333 | -45.06987 | 37963 ft | 403 kts | 258° |
| 2026-05-04 15:44 | 53.59396 | -45.16298 | 37971 ft | 403 kts | 257° |
| 2026-05-04 15:44 | 53.58448 | -45.25633 | 37946 ft | 404 kts | 257° |
| 2026-05-04 15:45 | 53.57493 | -45.34973 | 37945 ft | 405 kts | 257° |
| 2026-05-04 15:45 | 53.56530 | -45.44310 | 37934 ft | 405 kts | 257° |
| 2026-05-04 15:46 | 53.55567 | -45.53588 | 37933 ft | 405 kts | 256° |
| 2026-05-04 15:46 | 53.54589 | -45.62919 | 37914 ft | 405 kts | 256° |
| 2026-05-04 15:47 | 53.53603 | -45.72254 | 37913 ft | 406 kts | 256° |
| 2026-05-04 15:47 | 53.52609 | -45.81594 | 37914 ft | 406 kts | 256° |
| 2026-05-04 15:48 | 53.51599 | -45.90993 | 37899 ft | 411 kts | 256° |
| 2026-05-04 15:48 | 53.50062 | -46.05189 | 37898 ft | 411 kts | 256° |
| 2026-05-04 15:49 | 53.49028 | -46.14663 | 37890 ft | 412 kts | 254° |
| 2026-05-04 15:49 | 53.47990 | -46.24077 | 37884 ft | 413 kts | 254° |
| 2026-05-04 15:50 | 53.46936 | -46.33569 | 37879 ft | 413 kts | 254° |
| 2026-05-04 15:50 | 53.45876 | -46.43040 | 37877 ft | 413 kts | 254° |
| 2026-05-04 15:51 | 53.44808 | -46.52511 | 37874 ft | 413 kts | 254° |
| 2026-05-04 15:51 | 53.43740 | -46.61917 | 37868 ft | 413 kts | 254° |
| 2026-05-04 15:52 | 53.42658 | -46.71368 | 37863 ft | 413 kts | 254° |
| 2026-05-04 15:52 | 53.41569 | -46.80815 | 37859 ft | 413 kts | 254° |
| 2026-05-04 15:53 | 53.40473 | -46.90259 | 37849 ft | 412 kts | 253° |
| 2026-05-04 15:53 | 53.39370 | -46.99686 | 37848 ft | 412 kts | 253° |
| 2026-05-04 15:54 | 53.38257 | -47.09134 | 37829 ft | 414 kts | 253° |
| 2026-05-04 15:54 | 53.37131 | -47.18613 | 37829 ft | 414 kts | 253° |
| 2026-05-04 15:55 | 53.36008 | -47.28016 | 37827 ft | 414 kts | 253° |
| 2026-05-04 15:55 | 53.34867 | -47.37479 | 37808 ft | 416 kts | 252° |
| 2026-05-04 15:56 | 53.33711 | -47.47003 | 37807 ft | 418 kts | 252° |
| 2026-05-04 15:56 | 53.32545 | -47.56565 | 37796 ft | 418 kts | 252° |
| 2026-05-04 15:57 | 53.31373 | -47.66106 | 37796 ft | 418 kts | 252° |
| 2026-05-04 15:57 | 53.30193 | -47.75640 | 37790 ft | 418 kts | 252° |
| 2026-05-04 15:58 | 53.29014 | -47.85094 | 37774 ft | 418 kts | 252° |
| 2026-05-04 15:58 | 53.27817 | -47.94635 | 37782 ft | 420 kts | 251° |
| 2026-05-04 15:59 | 53.26596 | -48.04255 | 37756 ft | 426 kts | 251° |
| 2026-05-04 15:59 | 53.25361 | -48.13955 | 37751 ft | 426 kts | 251° |
| 2026-05-04 16:00 | 53.24131 | -48.23571 | 37756 ft | 426 kts | 250° |
| 2026-05-04 16:00 | 53.22882 | -48.33258 | 37742 ft | 426 kts | 250° |
| 2026-05-04 16:01 | 53.21628 | -48.42905 | 37738 ft | 426 kts | 250° |
| 2026-05-04 16:01 | 53.20364 | -48.52559 | 37735 ft | 427 kts | 250° |
| 2026-05-04 16:02 | 53.19081 | -48.62281 | 37723 ft | 430 kts | 250° |
| 2026-05-04 16:03 | 53.17150 | -48.76828 | 37711 ft | 430 kts | 250° |
| 2026-05-04 16:03 | 53.15843 | -48.86587 | 37699 ft | 432 kts | 250° |
| 2026-05-04 16:04 | 53.14519 | -48.96393 | 37688 ft | 435 kts | 250° |
| 2026-05-04 16:04 | 53.12515 | -49.11132 | 37701 ft | 435 kts | 249° |
| 2026-05-04 16:05 | 53.11162 | -49.20991 | 37671 ft | 438 kts | 249° |
| 2026-05-04 16:06 | 53.09119 | -49.35781 | 37673 ft | 438 kts | 249° |
| 2026-05-04 16:07 | 53.06359 | -49.55523 | 37649 ft | 438 kts | 249° |
| 2026-05-04 16:08 | 53.03796 | -49.73611 | 37643 ft | 440 kts | 249° |
| 2026-05-04 16:09 | 53.00176 | -49.98542 | 37620 ft | 442 kts | 245° |
| 2026-05-04 16:10 | 52.95873 | -50.17349 | 37614 ft | 436 kts | 240° |
| 2026-05-04 16:11 | 52.91299 | -50.36121 | 37595 ft | 443 kts | 240° |
| 2026-05-04 16:12 | 52.84381 | -50.64450 | 37583 ft | 442 kts | 240° |
| 2026-05-04 16:13 | 52.79681 | -50.83445 | 37566 ft | 453 kts | 240° |
| 2026-05-04 16:14 | 52.74854 | -51.02830 | 37556 ft | 455 kts | 240° |
| 2026-05-04 16:16 | 52.68792 | -51.26920 | 37536 ft | 459 kts | 240° |
| 2026-05-04 16:17 | 52.62592 | -51.51297 | 37516 ft | 461 kts | 240° |
| 2026-05-04 16:18 | 52.57595 | -51.70748 | 37529 ft | 462 kts | 240° |
| 2026-05-04 16:19 | 52.51256 | -51.95178 | 37509 ft | 466 kts | 240° |
| 2026-05-04 16:20 | 52.44852 | -52.19604 | 37493 ft | 466 kts | 240° |
| 2026-05-04 16:22 | 52.38407 | -52.43917 | 37479 ft | 466 kts | 240° |
| 2026-05-04 16:23 | 52.30596 | -52.73038 | 37466 ft | 469 kts | 239° |
| 2026-05-04 16:25 | 52.22642 | -53.02328 | 37452 ft | 469 kts | 239° |
| 2026-05-04 16:26 | 52.13269 | -53.36361 | 37428 ft | 473 kts | 239° |
| 2026-05-04 16:28 | 52.06483 | -53.60707 | 37414 ft | 473 kts | 239° |
| 2026-05-04 16:29 | 51.96888 | -53.94690 | 37381 ft | 474 kts | 239° |
| 2026-05-04 16:31 | 51.89953 | -54.18948 | 37374 ft | 475 kts | 238° |
| 2026-05-04 16:32 | 51.81571 | -54.47947 | 37379 ft | 475 kts | 239° |
| 2026-05-04 16:33 | 51.76265 | -54.67560 | 37337 ft | 478 kts | 242° |
| 2026-05-04 16:34 | 51.72571 | -54.82458 | 37328 ft | 478 kts | 242° |
| 2026-05-04 16:35 | 51.64916 | -55.12180 | 37303 ft | 479 kts | 242° |
| 2026-05-04 16:36 | 51.61062 | -55.26960 | 37297 ft | 480 kts | 241° |
| 2026-05-04 16:37 | 51.57171 | -55.41800 | 37289 ft | 479 kts | 241° |
| 2026-05-04 16:38 | 51.51953 | -55.61542 | 37270 ft | 479 kts | 242° |
| 2026-05-04 16:39 | 51.45391 | -55.86129 | 37237 ft | 479 kts | 241° |
| 2026-05-04 16:40 | 51.40126 | -56.05676 | 37232 ft | 478 kts | 242° |
| 2026-05-04 16:41 | 51.33278 | -56.29875 | 37233 ft | 477 kts | 240° |
| 2026-05-04 16:43 | 51.26297 | -56.54021 | 37225 ft | 480 kts | 241° |
| 2026-05-04 16:43 | 51.22103 | -56.68464 | 37221 ft | 480 kts | 241° |
| 2026-05-04 16:45 | 51.13611 | -56.97424 | 37207 ft | 484 kts | 240° |
| 2026-05-04 16:46 | 51.06416 | -57.21703 | 37205 ft | 485 kts | 240° |
| 2026-05-04 16:47 | 51.00645 | -57.40999 | 37200 ft | 484 kts | 240° |
| 2026-05-04 16:48 | 50.94827 | -57.60293 | 37197 ft | 484 kts | 240° |
| 2026-05-04 16:49 | 50.88982 | -57.79524 | 37202 ft | 483 kts | 240° |
| 2026-05-04 16:50 | 50.83147 | -57.98575 | 37194 ft | 480 kts | 240° |
| 2026-05-04 16:51 | 50.78772 | -58.12759 | 37194 ft | 480 kts | 240° |
| 2026-05-04 16:52 | 50.72892 | -58.31696 | 37192 ft | 479 kts | 240° |
| 2026-05-04 16:53 | 50.68469 | -58.45842 | 37192 ft | 479 kts | 240° |
| 2026-05-04 16:54 | 50.62574 | -58.64573 | 37196 ft | 478 kts | 240° |
| 2026-05-04 16:55 | 50.54160 | -58.91062 | 37191 ft | 478 kts | 240° |
| 2026-05-04 16:56 | 50.46692 | -59.14344 | 37195 ft | 476 kts | 240° |
| 2026-05-04 16:57 | 50.42196 | -59.28253 | 37199 ft | 476 kts | 240° |
| 2026-05-04 16:58 | 50.36182 | -59.46738 | 37215 ft | 476 kts | 240° |
| 2026-05-04 17:00 | 50.27116 | -59.74346 | 37210 ft | 476 kts | 240° |
| 2026-05-04 17:01 | 50.19523 | -59.97241 | 37218 ft | 475 kts | 240° |
| 2026-05-04 17:02 | 50.13417 | -60.15501 | 37226 ft | 474 kts | 240° |
| 2026-05-04 17:03 | 50.08821 | -60.29158 | 37238 ft | 474 kts | 240° |
| 2026-05-04 17:03 | 50.04215 | -60.42775 | 37245 ft | 472 kts | 240° |
| 2026-05-04 17:04 | 49.98072 | -60.60817 | 37253 ft | 474 kts | 240° |
| 2026-05-04 17:05 | 49.91897 | -60.78825 | 37256 ft | 472 kts | 240° |
| 2026-05-04 17:06 | 49.87237 | -60.92332 | 37260 ft | 471 kts | 240° |
| 2026-05-04 17:07 | 49.83108 | -61.04241 | 37259 ft | 471 kts | 240° |
| 2026-05-04 17:07 | 49.79493 | -61.14621 | 37261 ft | 471 kts | 240° |
| 2026-05-04 17:08 | 49.74811 | -61.28004 | 37270 ft | 471 kts | 240° |
| 2026-05-04 17:09 | 49.71684 | -61.36904 | 37269 ft | 471 kts | 240° |
| 2026-05-04 17:09 | 49.68550 | -61.45791 | 37279 ft | 471 kts | 240° |
| 2026-05-04 17:10 | 49.60719 | -61.67869 | 37291 ft | 469 kts | 240° |
| 2026-05-04 17:11 | 49.57579 | -61.76666 | 37296 ft | 468 kts | 240° |
| 2026-05-04 17:12 | 49.52850 | -61.89860 | 37307 ft | 468 kts | 240° |
| 2026-05-04 17:13 | 49.44966 | -62.11712 | 37321 ft | 466 kts | 240° |
| 2026-05-04 17:14 | 49.38667 | -62.29037 | 37328 ft | 465 kts | 239° |
| 2026-05-04 17:15 | 49.33921 | -62.42015 | 37340 ft | 464 kts | 239° |
| 2026-05-04 17:16 | 49.27581 | -62.59249 | 37353 ft | 463 kts | 239° |
| 2026-05-04 17:17 | 49.21246 | -62.76360 | 37362 ft | 463 kts | 239° |
| 2026-05-04 17:18 | 49.14906 | -62.93375 | 37381 ft | 458 kts | 239° |
| 2026-05-04 17:19 | 49.08584 | -63.10230 | 37388 ft | 457 kts | 239° |
| 2026-05-04 17:20 | 49.02242 | -63.27030 | 37408 ft | 455 kts | 239° |
| 2026-05-04 17:20 | 48.97475 | -63.39585 | 37420 ft | 457 kts | 239° |
| 2026-05-04 17:21 | 48.91094 | -63.56299 | 37433 ft | 457 kts | 239° |
| 2026-05-04 17:22 | 48.87922 | -63.64568 | 37442 ft | 456 kts | 239° |
| 2026-05-04 17:23 | 48.81529 | -63.81162 | 37453 ft | 456 kts | 239° |
| 2026-05-04 17:24 | 48.76698 | -63.93627 | 37456 ft | 457 kts | 239° |
| 2026-05-04 17:25 | 48.70231 | -64.10226 | 37448 ft | 459 kts | 239° |
| 2026-05-04 17:26 | 48.63722 | -64.26828 | 37442 ft | 458 kts | 239° |
| 2026-05-04 17:27 | 48.55534 | -64.47567 | 37448 ft | 459 kts | 239° |
| 2026-05-04 17:28 | 48.49011 | -64.63973 | 37472 ft | 453 kts | 238° |
| 2026-05-04 17:29 | 48.39253 | -64.88331 | 37491 ft | 454 kts | 238° |
| 2026-05-04 17:31 | 48.31056 | -65.08621 | 37503 ft | 454 kts | 238° |
| 2026-05-04 17:32 | 48.22841 | -65.28806 | 37515 ft | 454 kts | 238° |
| 2026-05-04 17:33 | 48.16236 | -65.44924 | 37520 ft | 452 kts | 238° |
| 2026-05-04 17:34 | 48.09628 | -65.60953 | 37548 ft | 452 kts | 238° |
| 2026-05-04 17:35 | 48.01343 | -65.80915 | 37548 ft | 452 kts | 238° |
| 2026-05-04 17:36 | 47.98010 | -65.88904 | 37561 ft | 452 kts | 238° |
| 2026-05-04 17:36 | 47.94666 | -65.96897 | 37570 ft | 452 kts | 238° |
| 2026-05-04 17:37 | 47.91351 | -66.04797 | 37584 ft | 451 kts | 238° |
| 2026-05-04 17:37 | 47.88015 | -66.12724 | 37576 ft | 452 kts | 238° |
| 2026-05-04 17:38 | 47.84674 | -66.20639 | 37584 ft | 450 kts | 238° |
| 2026-05-04 17:38 | 47.81343 | -66.28510 | 37589 ft | 449 kts | 238° |
| 2026-05-04 17:39 | 47.76338 | -66.40290 | 37595 ft | 450 kts | 238° |
| 2026-05-04 17:39 | 47.72993 | -66.48135 | 37590 ft | 449 kts | 238° |
| 2026-05-04 17:40 | 47.70205 | -66.54658 | 37606 ft | 450 kts | 238° |
| 2026-05-04 17:40 | 47.66843 | -66.62500 | 37607 ft | 450 kts | 238° |
| 2026-05-04 17:41 | 47.63473 | -66.70341 | 37617 ft | 450 kts | 238° |
| 2026-05-04 17:41 | 47.60124 | -66.78110 | 37636 ft | 450 kts | 238° |
| 2026-05-04 17:42 | 47.56744 | -66.85928 | 37625 ft | 451 kts | 238° |
| 2026-05-04 17:42 | 47.53344 | -66.93771 | 37628 ft | 452 kts | 238° |
| 2026-05-04 17:43 | 47.49942 | -67.01596 | 37633 ft | 452 kts | 238° |
| 2026-05-04 17:43 | 47.46537 | -67.09403 | 37637 ft | 452 kts | 238° |
| 2026-05-04 17:44 | 47.43123 | -67.17209 | 37644 ft | 452 kts | 238° |
| 2026-05-04 17:44 | 47.39707 | -67.25000 | 37650 ft | 451 kts | 238° |
| 2026-05-04 17:45 | 47.36325 | -67.32741 | 37650 ft | 451 kts | 239° |
| 2026-05-04 17:45 | 47.33310 | -67.40842 | 37658 ft | 451 kts | 243° |
| 2026-05-04 17:46 | 47.30444 | -67.49061 | 37670 ft | 451 kts | 243° |
| 2026-05-04 17:46 | 47.27517 | -67.57241 | 37662 ft | 451 kts | 242° |
| 2026-05-04 17:47 | 47.24618 | -67.65158 | 37667 ft | 453 kts | 242° |
| 2026-05-04 17:47 | 47.21616 | -67.73279 | 37670 ft | 454 kts | 242° |
| 2026-05-04 17:48 | 47.18571 | -67.81491 | 37668 ft | 459 kts | 242° |
| 2026-05-04 17:48 | 47.15522 | -67.89697 | 37675 ft | 460 kts | 242° |
| 2026-05-04 17:49 | 47.12453 | -67.97937 | 37668 ft | 459 kts | 242° |
| 2026-05-04 17:49 | 47.09387 | -68.06143 | 37673 ft | 458 kts | 242° |
| 2026-05-04 17:50 | 47.06319 | -68.14326 | 37674 ft | 458 kts | 242° |
| 2026-05-04 17:50 | 47.03244 | -68.22506 | 37673 ft | 459 kts | 242° |
| 2026-05-04 17:51 | 47.00150 | -68.30711 | 37673 ft | 459 kts | 242° |
| 2026-05-04 17:51 | 46.97079 | -68.38830 | 37677 ft | 459 kts | 242° |
| 2026-05-04 17:52 | 46.93978 | -68.47004 | 37686 ft | 458 kts | 242° |
| 2026-05-04 17:52 | 46.90874 | -68.55159 | 37686 ft | 458 kts | 241° |
| 2026-05-04 17:53 | 46.87762 | -68.63314 | 37694 ft | 458 kts | 241° |
| 2026-05-04 17:53 | 46.84665 | -68.71404 | 37697 ft | 459 kts | 241° |
| 2026-05-04 17:54 | 46.81542 | -68.79518 | 37700 ft | 458 kts | 241° |
| 2026-05-04 17:54 | 46.78416 | -68.87639 | 37704 ft | 458 kts | 241° |
| 2026-05-04 17:55 | 46.75283 | -68.95759 | 37713 ft | 458 kts | 241° |
| 2026-05-04 17:55 | 46.72186 | -69.03755 | 37713 ft | 458 kts | 241° |
| 2026-05-04 17:56 | 46.69067 | -69.11783 | 37723 ft | 458 kts | 241° |
| 2026-05-04 17:56 | 46.65920 | -69.19857 | 37724 ft | 458 kts | 241° |
| 2026-05-04 17:57 | 46.62772 | -69.27910 | 37727 ft | 458 kts | 241° |
| 2026-05-04 17:57 | 46.59614 | -69.35962 | 37735 ft | 458 kts | 241° |
| 2026-05-04 17:58 | 46.56471 | -69.43958 | 37735 ft | 459 kts | 241° |
| 2026-05-04 17:58 | 46.53295 | -69.52015 | 37737 ft | 459 kts | 241° |
| 2026-05-04 17:59 | 46.50115 | -69.60056 | 37742 ft | 459 kts | 241° |
| 2026-05-04 17:59 | 46.46925 | -69.68099 | 37550 ft | 459 kts | 241° |
| 2026-05-04 18:00 | 46.45326 | -69.72120 | 37321 ft | 459 kts | 241° |
| 2026-05-04 18:00 | 46.43733 | -69.76124 | 37083 ft | 459 kts | 241° |
| 2026-05-04 18:00 | 46.42138 | -69.80123 | 36839 ft | 458 kts | 241° |
| 2026-05-04 18:00 | 46.40538 | -69.84128 | 36570 ft | 458 kts | 241° |
| 2026-05-04 18:01 | 46.38937 | -69.88131 | 36317 ft | 458 kts | 241° |
| 2026-05-04 18:01 | 46.37357 | -69.92074 | 35982 ft | 457 kts | 241° |
| 2026-05-04 18:01 | 46.35760 | -69.96056 | 35616 ft | 458 kts | 242° |
| 2026-05-04 18:02 | 46.32577 | -70.03957 | 34840 ft | 450 kts | 242° |
| 2026-05-04 18:02 | 46.31007 | -70.07852 | 34471 ft | 445 kts | 242° |
| 2026-05-04 18:02 | 46.29452 | -70.11706 | 34108 ft | 440 kts | 242° |
| 2026-05-04 18:02 | 46.27919 | -70.15500 | 33747 ft | 435 kts | 243° |
| 2026-05-04 18:03 | 46.26398 | -70.19261 | 33293 ft | 431 kts | 243° |
| 2026-05-04 18:03 | 46.24893 | -70.22977 | 32871 ft | 426 kts | 243° |
| 2026-05-04 18:03 | 46.23402 | -70.26653 | 32444 ft | 421 kts | 244° |
| 2026-05-04 18:03 | 46.21927 | -70.30281 | 32040 ft | 416 kts | 244° |
| 2026-05-04 18:04 | 46.20464 | -70.33868 | 31626 ft | 412 kts | 244° |
| 2026-05-04 18:04 | 46.19017 | -70.37412 | 31235 ft | 407 kts | 244° |
| 2026-05-04 18:04 | 46.16173 | -70.44366 | 30443 ft | 398 kts | 245° |
| 2026-05-04 18:05 | 46.14774 | -70.47782 | 30056 ft | 394 kts | 245° |
| 2026-05-04 18:05 | 46.13385 | -70.51169 | 29637 ft | 389 kts | 246° |
| 2026-05-04 18:05 | 46.12030 | -70.54469 | 29142 ft | 385 kts | 246° |
| 2026-05-04 18:05 | 46.10671 | -70.57773 | 28677 ft | 381 kts | 247° |
| 2026-05-04 18:06 | 46.08001 | -70.64257 | 27798 ft | 373 kts | 247° |
| 2026-05-04 18:06 | 46.06683 | -70.67454 | 27359 ft | 369 kts | 248° |
| 2026-05-04 18:06 | 46.05380 | -70.70610 | 26927 ft | 365 kts | 248° |
| 2026-05-04 18:07 | 46.04086 | -70.73741 | 26516 ft | 362 kts | 248° |
| 2026-05-04 18:07 | 46.02803 | -70.76842 | 26096 ft | 359 kts | 248° |
| 2026-05-04 18:07 | 46.01548 | -70.79874 | 25699 ft | 355 kts | 248° |
| 2026-05-04 18:07 | 46.00406 | -70.82976 | 25299 ft | 347 kts | 254° |
| 2026-05-04 18:08 | 45.99578 | -70.86190 | 24893 ft | 337 kts | 261° |
| 2026-05-04 18:08 | 45.99099 | -70.89432 | 24505 ft | 329 kts | 269° |
| 2026-05-04 18:08 | 45.98921 | -70.92687 | 24104 ft | 322 kts | 273° |
| 2026-05-04 18:08 | 45.98855 | -70.95894 | 23733 ft | 319 kts | 274° |
| 2026-05-04 18:09 | 45.98740 | -71.02217 | 22859 ft | 313 kts | 274° |
| 2026-05-04 18:09 | 45.98612 | -71.08430 | 21954 ft | 308 kts | 274° |
| 2026-05-04 18:10 | 45.98546 | -71.11505 | 21528 ft | 306 kts | 274° |
| 2026-05-04 18:10 | 45.98479 | -71.14559 | 21105 ft | 304 kts | 274° |
| 2026-05-04 18:10 | 45.98412 | -71.17584 | 20692 ft | 302 kts | 273° |
| 2026-05-04 18:10 | 45.98345 | -71.20557 | 20290 ft | 300 kts | 273° |
| 2026-05-04 18:11 | 45.98277 | -71.23551 | 19877 ft | 299 kts | 273° |
| 2026-05-04 18:11 | 45.98208 | -71.26504 | 19480 ft | 297 kts | 273° |
| 2026-05-04 18:11 | 45.98139 | -71.29471 | 19082 ft | 296 kts | 273° |
| 2026-05-04 18:11 | 45.98069 | -71.32421 | 18694 ft | 294 kts | 273° |
| 2026-05-04 18:12 | 45.98000 | -71.35357 | 18306 ft | 294 kts | 273° |
| 2026-05-04 18:12 | 45.97930 | -71.38283 | 17891 ft | 292 kts | 273° |
| 2026-05-04 18:12 | 45.97859 | -71.41198 | 17464 ft | 291 kts | 272° |
| 2026-05-04 18:12 | 45.97787 | -71.44112 | 17023 ft | 291 kts | 272° |
| 2026-05-04 18:13 | 45.97715 | -71.47010 | 16610 ft | 290 kts | 272° |
| 2026-05-04 18:13 | 45.97643 | -71.49902 | 16186 ft | 289 kts | 271° |
| 2026-05-04 18:13 | 45.97498 | -71.55672 | 15351 ft | 288 kts | 271° |
| 2026-05-04 18:14 | 45.97424 | -71.58507 | 14936 ft | 287 kts | 271° |
| 2026-05-04 18:14 | 45.97346 | -71.61383 | 14575 ft | 286 kts | 270° |
| 2026-05-04 18:14 | 45.97269 | -71.64216 | 14304 ft | 282 kts | 270° |
| 2026-05-04 18:15 | 45.97118 | -71.69787 | 13781 ft | 275 kts | 270° |
| 2026-05-04 18:15 | 45.96969 | -71.75171 | 13370 ft | 269 kts | 270° |
| 2026-05-04 18:15 | 45.96895 | -71.77853 | 13150 ft | 268 kts | 270° |
| 2026-05-04 18:16 | 45.96820 | -71.80537 | 12926 ft | 268 kts | 270° |
| 2026-05-04 18:16 | 45.96743 | -71.83215 | 12706 ft | 268 kts | 270° |
| 2026-05-04 18:16 | 45.96667 | -71.85893 | 12496 ft | 267 kts | 269° |
| 2026-05-04 18:17 | 45.96514 | -71.91222 | 12069 ft | 267 kts | 269° |
| 2026-05-04 18:17 | 45.96437 | -71.93888 | 11860 ft | 267 kts | 269° |
| 2026-05-04 18:17 | 45.96279 | -71.99214 | 11453 ft | 266 kts | 269° |
| 2026-05-04 18:18 | 45.96199 | -72.01868 | 11237 ft | 265 kts | 269° |
| 2026-05-04 18:18 | 45.96120 | -72.04493 | 11042 ft | 265 kts | 269° |
| 2026-05-04 18:18 | 45.96040 | -72.07134 | 10820 ft | 265 kts | 269° |
| 2026-05-04 18:18 | 45.95959 | -72.09775 | 10604 ft | 263 kts | 268° |
| 2026-05-04 18:19 | 45.95879 | -72.12400 | 10418 ft | 263 kts | 268° |